Time;durP1;ratioP1;P1;durP2;ratioP2;P2;SDS_P1;SDS_P2;PMS_P1;PMS_P2;Temp;Humidity;BMP_temperature;BMP_pressure;BME280_temperature;BME280_humidity;BME280_pressure;Samples;Min_cycle;Max_cycle;Signal;HPM_P1;HPM_P2
2022/01/20 00:01:40;;;;;;;2.50;1.45;;;;;;;18.75;35.75;101465.53;4232678;28;20451;-48
2022/01/20 00:03:41;;;;;;;2.53;1.30;;;;;;;18.77;35.45;101463.34;4233217;28;20047;-44
2022/01/20 00:26:44;;;;;;;3.20;1.40;;;;;;;18.86;35.45;101454.59;4232716;28;20085;-45
2022/01/20 00:28:50;;;;;;;1.35;1.13;;;;;;;18.82;35.26;101447.88;4232137;28;20060;-45
2022/01/20 00:31:05;;;;;;;2.53;1.60;;;;;;;18.85;35.41;101455.69;4232975;28;20512;-45
2022/01/20 00:37:16;;;;;;;2.17;1.50;;;;;;;18.86;35.07;101457.38;4232784;28;20028;-45
2022/01/20 00:39:18;;;;;;;1.17;1.05;;;;;;;18.85;35.50;101451.00;4231688;28;20043;-47
2022/01/20 00:41:19;;;;;;;2.65;1.30;;;;;;;18.86;35.04;101457.38;4232089;28;20092;-47
2022/01/20 00:43:21;;;;;;;3.33;1.35;;;;;;;18.86;35.36;101452.66;4232488;28;20047;-44
2022/01/20 00:45:22;;;;;;;5.35;1.60;;;;;;;18.85;35.02;101452.94;4232687;28;20047;-47
2022/01/20 00:47:23;;;;;;;1.98;1.30;;;;;;;18.86;35.38;101451.81;4231667;28;20104;-47
2022/01/20 00:49:25;;;;;;;2.47;1.50;;;;;;;18.84;35.08;101451.25;4231940;28;20436;-49
2022/01/20 00:51:26;;;;;;;2.65;1.25;;;;;;;18.87;35.43;101453.50;4232306;28;20036;-46
2022/01/20 00:53:28;;;;;;;2.42;1.40;;;;;;;18.83;35.19;101449.56;4232121;28;20070;-47
2022/01/20 00:55:29;;;;;;;2.00;1.25;;;;;;;18.83;35.42;101444.00;4232299;28;20024;-48
2022/01/20 00:57:31;;;;;;;1.20;1.10;;;;;;;18.84;35.30;101459.56;4232081;28;20108;-48
2022/01/20 00:59:33;;;;;;;3.70;1.80;;;;;;;18.82;35.31;101453.44;4232178;28;20031;-46
2022/01/20 01:01:34;;;;;;;1.55;1.30;;;;;;;18.79;35.43;101443.69;4232154;28;20535;-48
2022/01/20 01:03:36;;;;;;;3.88;1.60;;;;;;;18.85;35.04;101458.47;4232275;28;20483;-49
2022/01/20 01:05:48;;;;;;;1.58;1.15;;;;;;;18.84;35.02;101456.81;4231820;28;20051;-46
2022/01/20 01:07:51;;;;;;;2.00;1.52;;;;;;;18.86;35.36;101458.22;4231969;27;20112;-47
2022/01/20 01:09:53;;;;;;;2.55;1.27;;;;;;;18.84;35.22;101465.13;4231243;28;20051;-45
2022/01/20 01:11:59;;;;;;;2.90;1.25;;;;;;;18.85;35.17;101452.94;4231739;28;20096;-47
2022/01/20 01:14:03;;;;;;;1.77;1.30;;;;;;;18.80;35.42;101459.22;4231592;28;20096;-47
2022/01/20 01:16:08;;;;;;;1.50;1.25;;;;;;;18.85;35.15;101464.03;4231974;28;20040;-47
2022/01/20 01:20:34;;;;;;;1.52;1.40;;;;;;;18.91;35.20;101468.53;4232100;28;19912;-44
2022/01/20 01:22:38;;;;;;;1.40;1.30;;;;;;;18.88;35.19;101457.97;4232038;28;20100;-47
2022/01/20 01:24:43;;;;;;;1.60;1.40;;;;;;;18.87;34.99;101450.72;4231842;27;20441;-46
2022/01/20 01:26:45;;;;;;;3.83;1.50;;;;;;;18.88;35.21;101455.19;4231982;28;20032;-46
2022/01/20 01:28:46;;;;;;;1.65;1.33;;;;;;;18.88;35.29;101452.44;4231478;28;20096;-47
2022/01/20 01:33:08;;;;;;;2.53;1.45;;;;;;;18.88;35.14;101455.19;4232519;28;20083;-47
2022/01/20 01:35:11;;;;;;;2.33;1.40;;;;;;;18.87;35.10;101459.03;4231212;27;20104;-45
2022/01/20 01:39:32;;;;;;;2.28;1.55;;;;;;;18.86;34.91;101462.91;4231129;28;20039;-45
2022/01/20 01:41:36;;;;;;;1.73;1.48;;;;;;;18.85;35.08;101459.31;4231291;28;20097;-46
2022/01/20 01:43:41;;;;;;;2.97;1.38;;;;;;;18.83;34.96;101446.78;4231329;28;20077;-45
2022/01/20 01:45:43;;;;;;;1.90;1.40;;;;;;;18.85;35.21;101455.69;4230248;28;20463;-45
2022/01/20 01:47:45;;;;;;;2.92;1.42;;;;;;;18.87;34.91;101467.38;4231071;28;20039;-44
2022/01/20 01:49:47;;;;;;;1.92;1.27;;;;;;;18.87;34.89;101457.09;4230914;28;20413;-46
2022/01/20 01:51:49;;;;;;;1.77;1.30;;;;;;;18.86;34.96;101449.06;4231238;28;20043;-44
2022/01/20 01:53:53;;;;;;;2.22;1.40;;;;;;;18.84;34.95;101445.72;4230859;28;20047;-49
2022/01/20 01:55:55;;;;;;;1.40;1.20;;;;;;;18.89;35.07;101454.09;4230803;28;20051;-45
2022/01/20 01:57:57;;;;;;;1.65;1.55;;;;;;;18.88;35.21;101452.44;4231136;28;20085;-50
2022/01/20 01:59:58;;;;;;;1.52;1.42;;;;;;;18.88;34.84;101463.53;4230468;28;20080;-45
2022/01/20 02:02:00;;;;;;;3.03;1.70;;;;;;;18.86;34.82;101449.06;4230749;28;20512;-45
2022/01/20 02:04:12;;;;;;;2.50;1.38;;;;;;;18.87;34.90;101456.28;4231192;28;20047;-47
2022/01/20 02:08:33;;;;;;;2.08;1.50;;;;;;;18.87;34.91;101467.38;4231865;28;20081;-45
2022/01/20 02:19:55;;;;;;;2.08;1.35;;;;;;;18.87;34.80;101467.38;4230671;28;20028;-50
2022/01/20 02:22:02;;;;;;;4.07;1.90;;;;;;;18.86;34.97;101460.16;4230583;28;20368;-47
2022/01/20 02:24:04;;;;;;;1.67;1.50;;;;;;;18.87;34.70;101472.91;4230540;28;20093;-45
2022/01/20 02:26:06;;;;;;;1.90;1.52;;;;;;;18.80;35.13;101456.47;4230506;28;20043;-48
2022/01/20 02:28:09;;;;;;;1.73;1.35;;;;;;;18.85;34.79;101466.78;4230871;28;20040;-47
2022/01/20 02:30:13;;;;;;;1.55;1.25;;;;;;;18.85;35.14;101455.69;4230332;28;20087;-46
2022/01/20 02:32:15;;;;;;;1.90;1.38;;;;;;;18.83;35.04;101460.66;4230438;28;20467;-46
2022/01/20 02:34:17;;;;;;;2.28;1.73;;;;;;;18.82;35.16;101456.19;4230641;28;20108;-46
2022/01/20 02:36:19;;;;;;;1.65;1.25;;;;;;;18.84;34.78;101473.44;4230860;28;20119;-47
2022/01/20 02:44:57;;;;;;;1.90;1.50;;;;;;;18.83;34.72;101467.06;4230781;28;20428;-44
2022/01/20 02:46:58;;;;;;;1.75;1.55;;;;;;;18.82;34.93;101459.81;4230333;28;20104;-50
2022/01/20 02:49:00;;;;;;;2.00;1.70;;;;;;;18.82;35.16;101465.34;4230432;28;20031;-44
2022/01/20 02:51:02;;;;;;;1.92;1.40;;;;;;;18.82;34.99;101475.59;4230337;28;20105;-45
2022/01/20 02:53:03;;;;;;;1.55;1.40;;;;;;;18.81;34.91;101479.47;4220642;28;20120;-48
2022/01/20 02:55:05;;;;;;;9.95;1.85;;;;;;;18.77;34.93;101473.59;4223722;28;20039;-47
2022/01/20 02:57:06;;;;;;;9.90;1.88;;;;;;;18.75;34.99;101471.09;4220972;28;20028;-53
2022/01/20 02:59:08;;;;;;;8.13;1.65;;;;;;;18.75;35.11;101484.94;4225674;28;20429;-45
2022/01/20 03:01:10;;;;;;;11.20;2.25;;;;;;;18.74;35.47;101486.06;4227164;28;20104;-48
2022/01/20 03:03:12;;;;;;;26.10;2.65;;;;;;;18.74;35.22;101491.59;4244998;27;20474;-46
2022/01/20 03:05:14;;;;;;;4.88;1.90;;;;;;;18.74;35.53;101491.59;4231247;27;20105;-47
2022/01/20 03:07:15;;;;;;;12.98;2.17;;;;;;;18.71;35.25;101481.00;4218289;28;20044;-47
2022/01/20 03:09:17;;;;;;;8.30;2.15;;;;;;;18.76;35.23;101481.06;4221096;28;20135;-45
2022/01/20 03:11:18;;;;;;;13.27;2.10;;;;;;;18.75;35.43;101482.19;4217725;28;20044;-47
2022/01/20 03:13:20;;;;;;;8.77;2.03;;;;;;;18.77;35.21;101479.97;4228029;28;20093;-46
2022/01/20 03:15:22;;;;;;;10.70;1.90;;;;;;;18.79;35.40;101477.81;4249506;27;20076;-46
2022/01/20 03:17:23;;;;;;;10.80;2.00;;;;;;;18.81;35.28;101485.88;4242964;27;20032;-49
2022/01/20 03:19:25;;;;;;;6.57;2.45;;;;;;;18.83;35.80;101482.81;4241769;27;20084;-46
2022/01/20 03:21:27;;;;;;;9.95;2.65;;;;;;;18.85;36.08;101483.44;4233336;28;20035;-44
2022/01/20 03:23:31;;;;;;;9.05;2.45;;;;;;;18.87;36.04;101486.78;4233573;28;20043;-45
2022/01/20 03:25:32;;;;;;;7.55;2.20;;;;;;;18.92;36.66;101497.94;4233250;28;20040;-46
2022/01/20 03:27:33;;;;;;;17.60;2.70;;;;;;;18.95;36.87;101503.00;4233711;28;20084;-48
2022/01/20 03:29:35;;;;;;;6.95;2.28;;;;;;;18.95;36.79;101486.34;4232670;28;20035;-47
2022/01/20 03:31:37;;;;;;;11.77;2.50;;;;;;;18.94;37.43;101491.06;4244565;27;20036;-46
2022/01/20 03:33:38;;;;;;;7.05;2.38;;;;;;;18.98;37.42;101485.84;4232664;28;20051;-45
2022/01/20 03:35:41;;;;;;;12.23;2.47;;;;;;;19.03;37.75;101491.47;4232654;28;20074;-48
2022/01/20 03:37:42;;;;;;;10.68;2.35;;;;;;;19.08;37.45;101497.09;4233065;28;20044;-44
2022/01/20 03:39:46;;;;;;;14.43;2.20;;;;;;;19.11;37.96;101496.59;4232557;28;20051;-45
2022/01/20 03:41:48;;;;;;;11.85;2.72;;;;;;;19.13;38.03;101483.28;4227911;28;20035;-44
2022/01/20 03:43:49;;;;;;;10.90;2.60;;;;;;;19.19;37.70;101498.91;4243799;27;20031;-46
2022/01/20 03:45:55;;;;;;;12.05;2.28;;;;;;;19.24;37.81;101498.13;4249948;27;20031;-45
2022/01/20 03:48:06;;;;;;;8.20;2.58;;;;;;;19.26;37.90;101493.19;4238180;27;20167;-45
2022/01/20 03:50:59;;;;;;;9.77;2.30;;;;;;;19.30;38.05;101495.19;4231053;28;20039;-47
2022/01/20 03:52:36;;;;;;;5.47;1.75;;;;;;;19.33;38.30;101493.81;4227918;28;20027;-49
2022/01/20 03:54:38;;;;;;;7.90;2.58;;;;;;;19.36;37.97;101493.31;4231289;28;20469;-46
2022/01/20 03:56:39;;;;;;;6.97;2.20;;;;;;;19.40;38.25;101488.09;4230562;28;20031;-46
2022/01/20 03:58:40;;;;;;;6.90;2.22;;;;;;;19.42;38.34;101486.72;4226239;28;20101;-44
2022/01/20 04:00:43;;;;;;;7.82;2.28;;;;;;;19.43;38.09;101493.16;4226100;28;20563;-48
2022/01/20 04:02:45;;;;;;;4.57;2.35;;;;;;;19.45;38.20;101486.22;4230554;28;20441;-49
2022/01/20 04:04:49;;;;;;;5.03;2.65;;;;;;;19.51;38.15;101473.25;4231901;28;20035;-48
2022/01/20 04:06:50;;;;;;;6.85;2.10;;;;;;;19.51;37.93;101473.25;4230435;28;20104;-46
2022/01/20 04:08:54;;;;;;;10.70;2.22;;;;;;;19.53;38.43;101473.84;4212818;28;20097;-48
2022/01/20 04:10:56;;;;;;;5.88;2.15;;;;;;;19.53;38.17;101474.66;4230564;28;20085;-44
2022/01/20 04:12:57;;;;;;;9.07;2.47;;;;;;;19.56;38.27;101476.06;4230681;28;20123;-49
2022/01/20 04:15:06;;;;;;;9.90;2.53;;;;;;;19.57;38.27;101472.22;4230903;28;20085;-45
2022/01/20 04:17:14;;;;;;;9.45;2.10;;;;;;;19.62;38.40;101469.53;4231203;28;20100;-44
2022/01/20 04:19:16;;;;;;;6.22;2.20;;;;;;;19.63;38.00;101470.38;4231208;28;20035;-47
2022/01/20 04:21:19;;;;;;;8.95;2.08;;;;;;;19.65;38.31;101469.00;4213519;28;20044;-44
2022/01/20 04:23:24;;;;;;;8.02;2.63;;;;;;;19.67;38.03;101472.38;4230871;28;20798;-45
2022/01/20 04:25:25;;;;;;;13.80;2.45;;;;;;;19.68;38.28;101465.72;4230396;28;20044;-44
2022/01/20 04:27:26;;;;;;;11.32;2.58;;;;;;;19.69;38.14;101464.59;4230406;28;20027;-45
2022/01/20 04:29:28;;;;;;;5.55;2.13;;;;;;;19.69;38.25;101464.59;4231076;28;20116;-45
2022/01/20 04:31:31;;;;;;;6.97;2.35;;;;;;;19.71;37.98;101462.44;4231559;28;20448;-45
2022/01/20 04:33:32;;;;;;;8.35;2.25;;;;;;;19.71;38.18;101462.44;4231390;28;20039;-48
2022/01/20 04:35:34;;;;;;;9.57;2.03;;;;;;;19.70;38.09;101462.66;4233633;27;20103;-46
2022/01/20 04:37:35;;;;;;;3.90;2.20;;;;;;;19.73;38.23;101454.66;4227269;28;20527;-47
2022/01/20 04:39:44;;;;;;;5.38;1.95;;;;;;;19.73;37.91;101457.44;4230461;27;20072;-49
2022/01/20 04:41:45;;;;;;;2.65;1.77;;;;;;;19.75;37.92;101457.19;4248984;27;20035;-49
2022/01/20 04:43:47;;;;;;;5.38;2.00;;;;;;;19.75;38.22;101458.03;4245728;27;20100;-49
2022/01/20 04:45:57;;;;;;;4.13;1.70;;;;;;;19.76;38.07;101458.88;4231631;28;20036;-49
2022/01/20 04:57:16;;;;;;;5.13;2.13;;;;;;;19.82;37.96;101440.31;4240813;27;20084;-44
2022/01/20 04:59:18;;;;;;;3.70;1.90;;;;;;;19.82;38.44;101434.75;4236260;27;20093;-43
2022/01/20 05:01:19;;;;;;;6.80;2.20;;;;;;;19.74;38.57;101428.56;4230548;28;20364;-44
2022/01/20 05:03:21;;;;;;;11.45;2.45;;;;;;;19.83;38.53;101437.28;4241811;27;20092;-44
2022/01/20 05:05:22;;;;;;;8.80;2.17;;;;;;;19.91;38.78;101436.81;4238566;27;20043;-47
2022/01/20 05:07:27;;;;;;;7.13;2.70;;;;;;;19.95;38.49;101439.91;4232183;27;20634;-46
2022/01/20 05:09:28;;;;;;;12.80;2.80;;;;;;;19.90;38.56;101425.97;4248513;27;20047;-46
2022/01/20 05:11:30;;;;;;;7.63;2.30;;;;;;;19.97;38.56;101443.25;4244672;27;20031;-48
2022/01/20 05:13:34;;;;;;;8.90;2.50;;;;;;;20.01;38.85;101438.84;4231108;28;20055;-49
2022/01/20 05:15:38;;;;;;;9.10;2.13;;;;;;;20.03;38.69;101442.22;4231036;28;20437;-46
2022/01/20 05:17:40;;;;;;;8.90;2.78;;;;;;;20.08;38.48;101445.03;4232054;28;20516;-50
2022/01/20 05:19:41;;;;;;;6.95;2.10;;;;;;;20.14;38.94;101454.25;4212987;28;20031;-45
2022/01/20 05:21:42;;;;;;;8.38;2.40;;;;;;;20.18;38.83;101450.69;4231098;28;20039;-47
2022/01/20 05:23:44;;;;;;;5.72;2.47;;;;;;;20.26;38.75;101455.78;4235602;27;20448;-47
2022/01/20 05:25:45;;;;;;;4.78;2.00;;;;;;;20.33;38.92;101452.75;4248593;27;20440;-47
2022/01/20 05:27:47;;;;;;;6.80;2.28;;;;;;;20.42;38.41;101451.16;4231169;28;20466;-49
2022/01/20 05:29:48;;;;;;;10.40;2.50;;;;;;;20.50;38.71;101447.09;4231005;28;20092;-46
2022/01/20 05:31:54;;;;;;;6.10;2.15;;;;;;;20.56;38.90;101451.59;4231623;28;20081;-48
2022/01/20 05:33:58;;;;;;;4.35;2.20;;;;;;;20.61;38.81;101436.88;4231129;28;20100;-47
2022/01/20 05:36:00;;;;;;;5.20;2.35;;;;;;;20.65;38.68;101438.88;4231960;28;20044;-47
2022/01/20 05:38:01;;;;;;;7.53;2.60;;;;;;;20.66;38.47;101429.41;4231410;28;20039;-46
2022/01/20 05:40:04;;;;;;;6.55;2.65;;;;;;;20.74;38.39;101436.44;4230788;28;20424;-46
2022/01/20 05:42:05;;;;;;;5.05;2.42;;;;;;;20.77;38.29;101442.31;4230878;28;20043;-50
2022/01/20 05:44:07;;;;;;;2.83;2.22;;;;;;;20.81;38.41;101431.47;4231136;28;20035;-45
2022/01/20 05:46:09;;;;;;;4.15;2.30;;;;;;;20.83;38.28;101432.03;4231008;28;20035;-52
2022/01/20 05:48:16;;;;;;;4.78;2.97;;;;;;;20.80;38.53;101419.53;4231502;28;20035;-49
2022/01/20 05:50:22;;;;;;;4.82;2.50;;;;;;;20.94;38.43;101435.75;4230651;28;20448;-49
2022/01/20 05:52:23;;;;;;;5.00;2.30;;;;;;;20.94;38.34;101435.75;4231612;28;20024;-45
2022/01/20 05:54:25;;;;;;;6.75;2.50;;;;;;;21.01;38.29;101439.09;4230900;28;20035;-48
2022/01/20 05:56:26;;;;;;;5.15;2.10;;;;;;;21.04;37.86;101442.19;4230852;28;20043;-48
2022/01/20 05:58:29;;;;;;;3.88;1.85;;;;;;;21.09;38.24;101452.50;4226714;28;20078;-49
2022/01/20 06:00:31;;;;;;;5.22;2.08;;;;;;;21.09;38.41;101443.31;4239101;27;20039;-46
2022/01/20 06:03:35;;;;;;;5.32;2.25;;;;;;;21.11;38.37;101441.94;4247917;27;20039;-45
2022/01/20 06:04:56;;;;;;;4.03;2.03;;;;;;;21.16;38.28;101453.09;4237212;27;20464;-46
2022/01/20 06:06:58;;;;;;;4.32;2.28;;;;;;;21.19;38.05;101462.84;4230753;28;20471;-46
2022/01/20 06:08:59;;;;;;;3.50;2.25;;;;;;;21.22;37.93;101446.47;4230722;28;20120;-47
2022/01/20 06:11:04;;;;;;;3.03;2.20;;;;;;;21.24;38.16;101441.44;4230680;28;20047;-47
2022/01/20 06:13:05;;;;;;;;;;;;;;;21.26;38.27;101439.25;4230948;28;20077;-49
2022/01/20 06:15:13;;;;;;;3.25;2.20;;;;;;;21.36;37.78;101446.00;4230624;28;19972;-47
2022/01/20 06:17:14;;;;;;;5.68;2.55;;;;;;;21.39;38.19;101449.06;4225372;28;20019;-51
2022/01/20 06:19:16;;;;;;;3.17;2.28;;;;;;;21.40;38.12;101444.34;4247506;27;20031;-50
2022/01/20 06:21:17;;;;;;;3.45;2.30;;;;;;;21.43;37.90;101460.50;4248184;27;20043;-49
2022/01/20 06:23:19;;;;;;;2.80;2.50;;;;;;;21.44;37.94;101463.03;4247391;27;20424;-46
2022/01/20 06:25:21;;;;;;;2.75;2.05;;;;;;;21.47;37.72;101451.31;4229645;28;20069;-46
2022/01/20 06:27:22;;;;;;;2.95;2.05;;;;;;;21.51;37.70;101454.41;4248035;27;20023;-46
2022/01/20 06:29:25;;;;;;;4.28;2.00;;;;;;;21.55;37.87;101459.16;4242391;27;20039;-45
2022/01/20 06:31:26;;;;;;;3.83;2.10;;;;;;;21.61;37.56;101462.78;4247647;27;20458;-44
2022/01/20 06:33:28;;;;;;;6.30;2.40;;;;;;;21.65;37.73;101451.94;4247494;27;20096;-46
2022/01/20 06:35:29;;;;;;;5.38;2.25;;;;;;;21.71;37.65;101457.25;4247123;27;20039;-45
2022/01/20 06:37:31;;;;;;;3.35;2.40;;;;;;;21.72;37.81;101469.25;4247528;27;20035;-45
2022/01/20 06:39:35;;;;;;;5.32;2.25;;;;;;;21.77;37.62;101478.47;4246817;27;20043;-44
2022/01/20 06:41:38;;;;;;;3.22;2.20;;;;;;;21.77;37.68;101478.47;4247475;27;20068;-50
2022/01/20 06:43:39;;;;;;;3.50;1.92;;;;;;;21.77;37.94;101478.47;4247423;27;20092;-47
2022/01/20 06:45:43;;;;;;;3.88;1.80;;;;;;;21.80;37.70;101474.28;4247403;27;20043;-49
2022/01/20 06:47:45;;;;;;;5.13;2.00;;;;;;;21.81;37.76;101479.59;4247352;28;20084;-48
2022/01/20 06:49:47;;;;;;;2.67;2.08;;;;;;;21.79;38.19;101476.22;4247114;28;20031;-49
2022/01/20 06:51:48;;;;;;;5.95;2.05;;;;;;;21.78;38.12;101480.13;4247500;28;20043;-46
2022/01/20 06:53:50;;;;;;;4.13;1.70;;;;;;;21.78;37.85;101491.28;4234304;28;20096;-52
2022/01/20 06:55:51;;;;;;;3.72;1.83;;;;;;;21.77;37.79;101494.34;4230457;28;20031;-47
2022/01/20 06:57:52;;;;;;;2.85;2.00;;;;;;;21.77;38.04;101499.91;4230298;28;20475;-48
2022/01/20 06:59:54;;;;;;;4.18;2.45;;;;;;;21.75;37.73;101491.81;4228355;28;20036;-48
2022/01/20 07:01:56;;;;;;;4.45;2.22;;;;;;;21.75;37.84;101497.38;4229495;28;20044;-46
2022/01/20 07:03:58;;;;;;;2.33;1.95;;;;;;;21.73;37.79;101488.47;4246857;28;20107;-48
2022/01/20 07:05:59;;;;;;;3.03;2.15;;;;;;;21.73;38.08;101488.47;4244787;28;20035;-49
2022/01/20 07:08:03;;;;;;;2.72;2.20;;;;;;;21.74;37.78;101490.13;4229671;28;20044;-45
2022/01/20 07:10:05;;;;;;;2.30;2.08;;;;;;;21.74;37.77;101494.88;4229699;28;20039;-49
2022/01/20 07:12:10;;;;;;;3.22;1.75;;;;;;;21.74;37.82;101495.72;4229665;28;20081;-48
2022/01/20 07:14:14;;;;;;;4.72;2.10;;;;;;;21.74;37.83;101492.09;4230170;28;20039;-47
2022/01/20 07:16:15;;;;;;;2.33;2.03;;;;;;;21.78;38.13;101499.63;4230715;28;20035;-46
2022/01/20 07:18:17;;;;;;;2.60;1.80;;;;;;;21.78;38.05;101491.28;4219108;28;20483;-48
2022/01/20 07:20:18;;;;;;;2.30;1.60;;;;;;;21.81;37.90;101501.03;4243582;28;20051;-48
2022/01/20 07:22:20;;;;;;;3.42;1.77;;;;;;;21.81;37.98;101503.81;4242639;28;20096;-50
2022/01/20 07:24:21;;;;;;;3.95;1.60;;;;;;;21.81;38.11;101509.41;4214187;28;20040;-46
2022/01/20 07:26:23;;;;;;;4.93;2.13;;;;;;;21.81;38.18;101521.38;4213302;28;20105;-46
2022/01/20 07:28:24;;;;;;;4.40;2.05;;;;;;;21.78;38.10;101516.34;4214144;28;20036;-47
2022/01/20 07:30:25;;;;;;;6.20;1.98;;;;;;;21.82;38.23;101531.41;4222681;28;20120;-50
2022/01/20 07:32:27;;;;;;;5.25;2.00;;;;;;;21.82;38.13;101536.13;4218044;28;20464;-47
2022/01/20 07:34:29;;;;;;;5.70;2.15;;;;;;;21.83;38.30;101527.50;4213095;28;20630;-47
2022/01/20 07:36:33;;;;;;;3.03;1.90;;;;;;;21.81;38.12;101524.16;4214218;28;20215;-48
2022/01/20 07:38:34;;;;;;;4.05;1.90;;;;;;;21.83;38.29;101533.06;4212478;28;20044;-50
2022/01/20 07:40:36;;;;;;;5.57;2.35;;;;;;;21.85;38.47;101523.59;4213130;28;20044;-50
2022/01/20 07:42:37;;;;;;;3.88;1.88;;;;;;;21.86;38.04;101514.16;4228796;28;20044;-47
2022/01/20 07:44:39;;;;;;;3.08;1.98;;;;;;;21.87;38.19;101532.53;4231746;28;20043;-47
2022/01/20 07:46:40;;;;;;;2.67;1.90;;;;;;;21.88;38.28;101534.22;4229825;28;20096;-46
2022/01/20 07:48:42;;;;;;;5.05;2.03;;;;;;;21.89;38.18;101541.44;4215699;28;20491;-44
2022/01/20 07:50:43;;;;;;;3.17;1.83;;;;;;;21.90;38.29;101543.13;4223061;28;20089;-45
2022/01/20 07:52:45;;;;;;;5.03;1.80;;;;;;;21.90;38.47;101531.97;4231689;28;20391;-46
2022/01/20 07:54:49;;;;;;;2.78;1.75;;;;;;;21.91;38.67;101544.81;4228019;28;20532;-47
2022/01/20 07:56:52;;;;;;;3.00;1.83;;;;;;;21.88;38.30;101532.25;4216123;28;20044;-46
2022/01/20 07:58:53;;;;;;;5.40;1.70;;;;;;;21.94;38.60;101538.69;4224245;28;20043;-45
2022/01/20 08:00:55;;;;;;;3.10;2.28;;;;;;;21.92;38.54;101532.56;4216531;28;20418;-44
2022/01/20 08:02:56;;;;;;;3.17;1.80;;;;;;;21.95;38.29;101518.09;4231134;28;20478;-45
2022/01/20 08:04:58;;;;;;;2.40;1.80;;;;;;;21.95;38.64;101513.34;4232741;28;20043;-48
2022/01/20 08:07:00;;;;;;;5.70;1.95;;;;;;;21.97;38.70;101518.63;4226088;28;20445;-47
2022/01/20 08:09:01;;;;;;;3.08;1.88;;;;;;;21.97;38.49;101522.25;4222961;27;20052;-45
2022/01/20 08:11:03;;;;;;;4.72;1.60;;;;;;;21.97;38.67;101521.41;4216763;28;20097;-48
2022/01/20 08:13:05;;;;;;;2.45;1.55;;;;;;;21.98;38.49;101523.09;4221821;28;20043;-46
2022/01/20 08:15:10;;;;;;;2.22;1.42;;;;;;;21.99;38.70;101519.19;4232323;28;20100;-45
2022/01/20 08:17:11;;;;;;;3.53;2.15;;;;;;;22.03;38.64;101531.47;4220425;28;20418;-45
2022/01/20 08:19:13;;;;;;;4.05;2.40;;;;;;;22.03;38.38;101523.09;4231508;28;20035;-45
2022/01/20 08:21:14;;;;;;;2.58;1.85;;;;;;;21.99;38.25;101524.75;4225120;28;20094;-46
2022/01/20 08:23:15;;;;;;;5.88;1.73;;;;;;;22.04;38.29;101535.94;4215508;28;20078;-45
2022/01/20 08:25:23;;;;;;;3.75;1.80;;;;;;;22.06;38.24;101533.72;4223289;28;20035;-47
2022/01/20 08:27:24;;;;;;;5.32;2.35;;;;;;;22.07;38.42;101521.44;4231590;28;20579;-47
2022/01/20 08:29:26;;;;;;;5.68;2.03;;;;;;;22.06;38.35;101525.34;4224733;28;20028;-45
2022/01/20 08:31:29;;;;;;;5.03;1.60;;;;;;;22.06;38.42;101528.13;4215499;28;20090;-45
2022/01/20 08:33:33;;;;;;;2.92;1.80;;;;;;;22.06;38.00;101526.19;4231282;28;20040;-49
2022/01/20 08:35:36;;;;;;;5.82;2.10;;;;;;;22.07;37.99;101533.41;4197485;28;20044;-48
2022/01/20 08:37:45;;;;;;;6.78;2.00;;;;;;;22.06;38.04;101531.75;4219339;28;20082;-46
2022/01/20 08:39:46;;;;;;;4.38;2.00;;;;;;;22.02;38.11;101521.44;4241377;27;20104;-50
2022/01/20 08:41:47;;;;;;;2.03;1.80;;;;;;;22.08;38.04;101532.34;4231289;28;20089;-48
2022/01/20 08:43:49;;;;;;;1.88;1.58;;;;;;;22.12;37.98;101513.13;4249595;27;20083;-49
2022/01/20 08:45:51;;;;;;;3.03;1.63;;;;;;;22.08;37.94;101503.59;4227547;28;20179;-47
2022/01/20 08:47:54;;;;;;;2.65;2.00;;;;;;;22.13;37.91;101509.25;4248242;27;20083;-45
2022/01/20 08:49:56;;;;;;;4.43;1.83;;;;;;;22.15;38.00;101523.72;4240453;27;20039;-51
2022/01/20 08:51:59;;;;;;;2.63;1.80;;;;;;;22.16;38.05;101505.06;4229918;28;20047;-51
2022/01/20 08:54:00;;;;;;;4.93;1.77;;;;;;;22.15;37.78;101512.56;4223318;27;20044;-48
2022/01/20 08:56:03;;;;;;;3.08;1.83;;;;;;;22.16;38.06;101508.66;4248528;27;20128;-48
2022/01/20 08:58:05;;;;;;;3.05;1.90;;;;;;;22.12;38.07;101501.97;4245830;27;20035;-48
2022/01/20 09:00:09;;;;;;;3.50;1.77;;;;;;;22.13;37.83;101506.47;4230792;28;20043;-50
2022/01/20 09:02:11;;;;;;;5.40;1.65;;;;;;;22.14;37.96;101504.50;4231334;28;20040;-48
2022/01/20 09:04:12;;;;;;;3.05;1.55;;;;;;;22.19;37.72;101515.66;4231864;28;20048;-50
2022/01/20 09:06:14;;;;;;;2.78;2.05;;;;;;;22.19;37.91;101508.13;4231785;28;20092;-48
2022/01/20 09:08:15;;;;;;;3.25;1.80;;;;;;;22.15;37.94;101497.81;4231835;28;20039;-52
2022/01/20 09:10:20;;;;;;;2.40;1.75;;;;;;;22.18;38.01;101494.47;4233576;27;20039;-48
2022/01/20 09:16:58;;;;;;;3.65;1.50;;;;;;;22.24;37.71;101510.91;4249278;27;20063;-50
2022/01/20 09:19:00;;;;;;;2.03;1.40;;;;;;;22.25;38.04;101522.91;4248210;27;20519;-47
2022/01/20 09:21:02;;;;;;;3.90;1.80;;;;;;;22.24;37.98;101510.91;4248434;27;20100;-48
2022/01/20 09:23:03;;;;;;;3.33;1.90;;;;;;;22.23;37.71;101530.72;4226570;27;20510;-50
2022/01/20 09:25:10;;;;;;;2.10;1.50;;;;;;;22.24;37.76;101519.28;4221241;28;20444;-50
2022/01/20 09:27:12;;;;;;;2.42;1.70;;;;;;;22.26;37.74;101517.03;4229951;28;20093;-51
2022/01/20 09:29:17;;;;;;;3.75;1.70;;;;;;;22.28;37.78;101528.78;4222384;27;20360;-50
2022/01/20 09:31:24;;;;;;;2.10;1.58;;;;;;;22.28;37.98;101531.56;4247992;27;20035;-51
2022/01/20 09:33:28;;;;;;;3.97;1.42;;;;;;;22.29;37.92;101530.44;4244504;27;20031;-49
2022/01/20 09:35:32;;;;;;;2.08;1.55;;;;;;;22.30;38.10;101537.69;4231646;28;20088;-45
2022/01/20 09:37:36;;;;;;;1.90;1.48;;;;;;;22.30;37.74;101532.13;4231166;28;20135;-46
2022/01/20 09:39:40;;;;;;;3.05;1.60;;;;;;;22.32;38.01;101518.75;4231218;28;20056;-46
2022/01/20 09:41:44;;;;;;;3.38;1.50;;;;;;;22.33;38.06;101526.00;4231148;28;20035;-43
2022/01/20 09:43:45;;;;;;;3.67;1.40;;;;;;;22.35;37.92;101528.50;4231101;28;20305;-46
2022/01/20 09:45:53;;;;;;;2.63;1.70;;;;;;;22.33;37.84;101531.56;4236073;27;20035;-48
2022/01/20 09:47:54;;;;;;;2.30;1.40;;;;;;;22.32;37.98;101527.13;4248040;27;20444;-46
2022/01/20 09:49:58;;;;;;;2.28;1.42;;;;;;;22.36;38.08;101530.19;4247314;27;20031;-48
2022/01/20 09:52:00;;;;;;;4.80;1.92;;;;;;;22.37;38.19;101539.41;4247927;27;20047;-45
2022/01/20 09:54:01;;;;;;;2.17;1.70;;;;;;;22.38;38.06;101533.53;4248023;27;20649;-49
2022/01/20 09:56:03;;;;;;;2.50;1.60;;;;;;;22.36;37.92;101534.91;4248376;27;20027;-46
2022/01/20 09:58:06;;;;;;;2.22;1.50;;;;;;;22.38;37.95;101541.06;4248442;27;20035;-47
2022/01/20 10:00:11;;;;;;;2.78;1.60;;;;;;;22.38;38.12;101543.84;4248141;27;20027;-46
2022/01/20 10:02:18;;;;;;;1.70;1.52;;;;;;;22.41;37.84;101548.88;4247441;27;20031;-46
2022/01/20 10:04:25;;;;;;;7.40;1.63;;;;;;;22.42;38.04;101539.41;4247924;27;20100;-46
2022/01/20 10:06:27;;;;;;;4.15;1.55;;;;;;;22.41;37.89;101534.94;4246929;27;20088;-47
2022/01/20 10:08:30;;;;;;;2.92;1.33;;;;;;;22.44;38.25;101543.56;4245147;27;20035;-46
2022/01/20 10:10:47;;;;;;;3.17;1.65;;;;;;;22.43;38.24;101529.91;4247504;27;20087;-46
2022/01/20 10:12:48;;;;;;;2.22;1.40;;;;;;;22.47;38.14;101515.13;4248198;27;20023;-45
2022/01/20 10:14:53;;;;;;;2.08;1.70;;;;;;;22.45;38.44;101509.00;4247519;27;20123;-47
2022/01/20 10:16:54;;;;;;;2.05;1.50;;;;;;;22.48;38.31;101515.97;4247349;27;20051;-46
2022/01/20 10:19:00;;;;;;;5.00;1.92;;;;;;;22.50;38.44;101524.91;4247334;27;20166;-45
2022/01/20 10:21:04;;;;;;;3.55;1.52;;;;;;;22.49;38.43;101523.22;4247951;27;20537;-44
2022/01/20 10:23:05;;;;;;;2.22;1.33;;;;;;;22.52;38.20;101528.25;4235771;27;20043;-48
2022/01/20 10:25:12;;;;;;;1.83;1.20;;;;;;;22.51;38.35;101538.56;4230942;28;20084;-48
2022/01/20 10:27:14;;;;;;;2.40;1.80;;;;;;;22.51;38.06;101546.09;4230591;28;20039;-47
2022/01/20 10:29:16;;;;;;;3.40;1.48;;;;;;;22.53;38.32;101552.22;4229680;28;20039;-48
2022/01/20 10:31:29;;;;;;;3.13;1.50;;;;;;;22.52;38.34;101561.72;4229624;28;20073;-47
2022/01/20 10:33:39;;;;;;;3.05;1.92;;;;;;;22.55;38.17;101566.75;4229041;28;20478;-51
2022/01/20 10:35:41;;;;;;;3.38;1.70;;;;;;;22.56;38.54;101583.19;4223195;27;20043;-48